Time;durP1;ratioP1;P1;durP2;ratioP2;P2;SDS_P1;SDS_P2;PMS_P1;PMS_P2;Temp;Humidity;BMP_temperature;BMP_pressure;BME280_temperature;BME280_humidity;BME280_pressure;Samples;Min_cycle;Max_cycle;Signal;HPM_P1;HPM_P2
2022/06/07 00:00:48;;;;;;;5.70;5.03;;;;;;;15.35;69.90;100249.22;5105292;28;20031;-71
2022/06/07 00:03:14;;;;;;;8.68;6.43;;;;;;;15.40;69.97;100251.69;5086651;28;20035;-70
2022/06/07 00:05:43;;;;;;;8.25;5.45;;;;;;;15.36;70.27;100254.38;5104851;28;20023;-71
2022/06/07 00:08:10;;;;;;;7.30;5.25;;;;;;;15.28;70.55;100256.38;5105051;28;20024;-70
2022/06/07 00:10:35;;;;;;;7.15;5.20;;;;;;;15.24;70.79;100246.88;5104851;28;20032;-70
2022/06/07 00:13:00;;;;;;;8.63;5.78;;;;;;;15.19;71.09;100252.25;5105008;28;20111;-70
2022/06/07 00:15:26;;;;;;;6.75;5.30;;;;;;;15.20;70.95;100245.28;5086006;28;20126;-70
2022/06/07 00:17:52;;;;;;;7.85;6.20;;;;;;;15.19;71.03;100252.25;5104471;28;20024;-70
2022/06/07 00:20:18;;;;;;;8.57;6.20;;;;;;;15.16;71.11;100244.50;5104454;28;20138;-70
2022/06/07 00:22:46;;;;;;;7.75;6.55;;;;;;;15.17;71.23;100241.03;5104886;28;20539;-70
2022/06/07 00:25:13;;;;;;;18.13;7.72;;;;;;;15.19;71.20;100238.34;5104631;28;20028;-69
2022/06/07 00:27:39;;;;;;;8.43;5.80;;;;;;;15.18;71.28;100241.84;5104326;28;20038;-69
2022/06/07 00:30:05;;;;;;;9.15;6.55;;;;;;;15.20;71.33;100242.66;5104552;28;20103;-71
2022/06/07 00:32:32;;;;;;;7.20;5.85;;;;;;;15.18;71.54;100232.25;5104571;28;20423;-70
2022/06/07 00:34:58;;;;;;;7.85;6.07;;;;;;;15.14;71.85;100233.28;5104369;28;20095;-70
2022/06/07 00:37:23;;;;;;;7.80;6.10;;;;;;;15.04;72.27;100232.69;5086298;28;20153;-70
2022/06/07 00:39:48;;;;;;;9.57;6.20;;;;;;;15.06;72.44;100233.50;5104090;28;20020;-70
2022/06/07 00:42:15;;;;;;;7.93;6.65;;;;;;;14.96;73.12;100234.66;5104580;28;20028;-69
2022/06/07 00:44:44;;;;;;;8.80;5.93;;;;;;;14.92;73.44;100233.06;5104329;28;20055;-69
2022/06/07 00:47:11;;;;;;;10.93;7.38;;;;;;;14.87;73.98;100226.19;5104091;28;20343;-70
2022/06/07 00:49:45;;;;;;;9.50;6.20;;;;;;;14.83;74.16;100223.72;5104076;28;20020;-71
2022/06/07 00:52:11;;;;;;;13.63;7.15;;;;;;;14.77;74.74;100227.34;5104265;28;20028;-71
2022/06/07 00:54:37;;;;;;;9.13;7.15;;;;;;;14.70;74.94;100229.25;5104127;28;20035;-69
2022/06/07 00:57:03;;;;;;;8.73;6.95;;;;;;;14.69;75.18;100234.53;5103824;28;20064;-71
2022/06/07 00:59:30;;;;;;;8.15;6.65;;;;;;;14.74;75.17;100230.03;5103761;28;20028;-70
2022/06/07 01:01:55;;;;;;;11.27;6.75;;;;;;;14.70;75.24;100239.72;5103951;28;20034;-70
2022/06/07 01:04:23;;;;;;;10.23;7.70;;;;;;;14.73;75.11;100230.91;5103713;28;20020;-70
2022/06/07 01:12:18;;;;;;;10.63;8.15;;;;;;;14.71;75.62;100241.41;5103976;28;20035;-71
2022/06/07 01:14:43;;;;;;;13.02;8.18;;;;;;;14.66;75.79;100232.00;5103776;28;20023;-70
2022/06/07 01:17:09;;;;;;;11.20;7.85;;;;;;;14.66;76.03;100234.63;5103584;28;20526;-70
2022/06/07 01:19:34;;;;;;;12.50;7.80;;;;;;;14.66;76.22;100234.63;5103395;28;20556;-70
2022/06/07 01:21:59;;;;;;;12.55;8.15;;;;;;;14.58;76.82;100227.88;5103925;28;20412;-70
2022/06/07 01:24:25;;;;;;;14.13;9.02;;;;;;;14.57;77.04;100228.75;5103729;28;20028;-71
2022/06/07 01:26:51;;;;;;;11.60;8.48;;;;;;;14.47;77.74;100228.13;5103273;28;20320;-71
2022/06/07 01:29:16;;;;;;;14.38;8.85;;;;;;;14.43;78.22;100228.28;5085060;28;20433;-69
2022/06/07 01:31:42;;;;;;;12.20;8.65;;;;;;;14.41;78.26;100230.09;5103404;28;20024;-69
2022/06/07 01:34:09;;;;;;;14.82;10.02;;;;;;;14.37;78.26;100230.16;5085112;28;20027;-70
2022/06/07 01:36:34;;;;;;;14.23;9.43;;;;;;;14.39;78.47;100224.91;5103492;28;20024;-70
2022/06/07 01:41:56;;;;;;;12.50;9.23;;;;;;;14.34;79.05;100213.72;5103564;28;20035;-71
2022/06/07 01:44:28;;;;;;;15.88;10.98;;;;;;;14.22;79.35;100204.44;5103417;28;20028;-72
2022/06/07 01:46:56;;;;;;;17.05;10.10;;;;;;;14.19;79.79;100210.63;5103392;28;20550;-71
2022/06/07 01:49:23;;;;;;;16.98;11.32;;;;;;;14.12;79.77;100209.91;5102990;28;20053;-71
2022/06/07 01:51:50;;;;;;;18.10;11.95;;;;;;;14.11;80.41;100204.75;5085095;28;20024;-70
2022/06/07 01:54:16;;;;;;;19.73;11.30;;;;;;;14.09;80.51;100203.94;5103302;28;20023;-70
2022/06/07 01:56:41;;;;;;;20.35;12.07;;;;;;;14.07;81.18;100210.94;5103103;28;20511;-70
2022/06/07 01:59:07;;;;;;;22.52;12.32;;;;;;;14.02;81.62;100212.81;5102932;28;20070;-70
2022/06/07 02:01:33;;;;;;;20.52;13.20;;;;;;;14.02;81.85;100205.84;5103201;28;20020;-70
2022/06/07 02:03:59;;;;;;;19.80;12.27;;;;;;;14.00;81.93;100205.03;5102714;28;20422;-70
2022/06/07 02:06:25;;;;;;;20.88;12.75;;;;;;;13.93;81.89;100177.38;5103289;28;20048;-72
2022/06/07 02:08:51;;;;;;;21.20;13.82;;;;;;;14.02;82.20;100186.72;5103110;28;20020;-71
2022/06/07 02:11:20;;;;;;;21.60;13.73;;;;;;;14.00;82.18;100189.38;5103096;28;20495;-70
2022/06/07 02:13:46;;;;;;;21.67;13.80;;;;;;;14.05;82.33;100182.28;5103143;28;20028;-70
2022/06/07 02:16:13;;;;;;;24.05;14.20;;;;;;;14.06;82.27;100198.78;5103072;28;20027;-70
2022/06/07 02:18:39;;;;;;;22.55;14.35;;;;;;;14.04;82.25;100183.16;5102663;28;20043;-69
2022/06/07 02:21:06;;;;;;;22.42;13.90;;;;;;;14.10;82.33;100190.84;5102621;28;20044;-69
2022/06/07 02:23:33;;;;;;;22.77;14.13;;;;;;;14.13;82.51;100187.28;5103117;28;20015;-69
2022/06/07 02:26:03;;;;;;;21.45;13.52;;;;;;;14.11;82.50;100192.56;5102926;28;20072;-69
2022/06/07 02:28:32;;;;;;;16.40;11.55;;;;;;;14.11;82.76;100192.56;5102805;28;20016;-69
2022/06/07 02:30:59;;;;;;;16.90;11.80;;;;;;;14.12;82.85;100194.25;5084609;28;20111;-69
2022/06/07 02:33:26;;;;;;;19.35;12.02;;;;;;;14.15;82.93;100195.09;5102868;28;20134;-69
2022/06/07 02:35:52;;;;;;;20.05;13.18;;;;;;;14.15;83.00;100192.47;5102630;28;20048;-70
2022/06/07 02:38:19;;;;;;;17.13;12.60;;;;;;;14.20;82.89;100198.44;5102611;28;20157;-69
2022/06/07 02:40:47;;;;;;;20.50;12.15;;;;;;;14.21;83.15;100193.19;5106177;28;20024;-70
2022/06/07 02:43:12;;;;;;;20.10;12.60;;;;;;;14.21;83.11;100193.19;5106501;28;20020;-70
2022/06/07 02:45:38;;;;;;;14.38;11.65;;;;;;;14.24;83.14;100197.44;5106814;28;20041;-70
2022/06/07 02:48:04;;;;;;;17.23;11.35;;;;;;;14.23;83.08;100193.97;5106347;28;20105;-70
2022/06/07 02:50:29;;;;;;;19.90;11.55;;;;;;;14.22;83.28;100196.63;5106195;28;20233;-70
2022/06/07 02:52:55;;;;;;;14.38;10.88;;;;;;;14.17;83.28;100186.31;5106359;28;20093;-70
2022/06/07 02:55:20;;;;;;;19.75;12.20;;;;;;;14.23;83.49;100191.34;5106218;28;20051;-70
2022/06/07 02:57:46;;;;;;;18.60;11.57;;;;;;;14.24;83.26;100200.06;5106000;28;20048;-70
2022/06/07 03:00:14;;;;;;;14.27;10.13;;;;;;;14.21;83.61;100198.41;5106452;28;20269;-70
2022/06/07 03:02:39;;;;;;;15.38;10.55;;;;;;;14.17;83.84;100193.31;5105982;28;20050;-70
2022/06/07 03:05:06;;;;;;;15.00;10.35;;;;;;;14.18;83.87;100195.88;5087675;28;20020;-70
2022/06/07 03:07:31;;;;;;;16.02;11.60;;;;;;;14.18;84.01;100187.16;5106091;28;20024;-71
2022/06/07 03:09:57;;;;;;;18.08;11.60;;;;;;;14.17;84.05;100193.31;5105913;28;20024;-70
2022/06/07 03:12:22;;;;;;;13.75;9.52;;;;;;;14.22;83.84;100188.78;5106193;28;20020;-69
2022/06/07 03:14:48;;;;;;;14.25;10.95;;;;;;;14.14;84.38;100189.00;5106108;28;20115;-69
2022/06/07 03:17:13;;;;;;;18.58;11.80;;;;;;;14.13;84.47;100184.69;5106016;28;20024;-70
2022/06/07 03:19:39;;;;;;;17.15;11.35;;;;;;;14.13;84.48;100179.47;5105594;28;20031;-70
2022/06/07 03:22:07;;;;;;;17.35;10.93;;;;;;;14.17;84.61;100185.47;5105886;28;20126;-70
2022/06/07 03:24:34;;;;;;;19.00;10.90;;;;;;;14.17;84.42;100175.03;5105870;28;20020;-69
2022/06/07 03:26:59;;;;;;;16.23;12.02;;;;;;;14.16;84.56;100170.69;5105644;28;20040;-70
2022/06/07 03:29:25;;;;;;;13.85;11.18;;;;;;;14.16;84.67;100163.72;5105527;28;20031;-70
2022/06/07 03:31:50;;;;;;;16.27;11.18;;;;;;;14.18;84.73;100161.06;5105603;28;20043;-70
2022/06/07 03:34:16;;;;;;;19.30;11.43;;;;;;;14.19;84.49;100171.47;5105399;28;20040;-70
2022/06/07 03:36:41;;;;;;;17.52;10.85;;;;;;;14.22;84.55;100165.28;5105901;28;20023;-72
2022/06/07 03:39:09;;;;;;;16.55;10.82;;;;;;;14.20;84.74;100159.28;5105428;28;20085;-70
2022/06/07 03:41:35;;;;;;;22.33;11.32;;;;;;;14.20;84.72;100156.66;5087334;28;20016;-73
2022/06/07 03:44:00;;;;;;;15.70;11.30;;;;;;;14.22;84.89;100166.16;5105415;28;20020;-71
2022/06/07 03:46:28;;;;;;;14.43;9.80;;;;;;;14.26;84.58;100164.31;5105495;28;20024;-70
2022/06/07 03:48:55;;;;;;;17.88;11.25;;;;;;;14.29;84.70;100166.84;5104831;28;20023;-70
2022/06/07 03:51:23;;;;;;;16.45;10.73;;;;;;;14.35;84.94;100164.06;5105254;28;20031;-71
2022/06/07 03:53:50;;;;;;;17.85;11.27;;;;;;;14.43;84.81;100162.97;5105294;28;20020;-71
2022/06/07 03:56:16;;;;;;;15.88;10.55;;;;;;;14.46;84.76;100166.38;5105316;28;20066;-71
2022/06/07 03:58:43;;;;;;;13.95;10.35;;;;;;;14.56;84.82;100158.25;5086589;28;20030;-71
2022/06/07 04:01:15;;;;;;;13.68;10.07;;;;;;;14.65;84.17;100147.53;5105032;28;20264;-70
2022/06/07 04:03:45;;;;;;;14.55;10.35;;;;;;;14.72;84.11;100140.38;5105303;28;20028;-69
2022/06/07 04:06:23;;;;;;;12.48;9.15;;;;;;;14.95;84.25;100142.31;5104926;28;20050;-71
2022/06/07 04:08:48;;;;;;;11.57;9.23;;;;;;;15.38;84.96;100148.84;5104646;28;20077;-70
2022/06/07 04:11:18;;;;;;;13.30;9.90;;;;;;;15.73;84.84;100139.81;5105048;28;20036;-70
2022/06/07 04:13:44;;;;;;;11.77;8.80;;;;;;;15.93;83.32;100143.50;5104762;28;20020;-70
2022/06/07 04:16:14;;;;;;;10.77;8.10;;;;;;;16.17;83.48;100138.31;5104668;28;20393;-69
2022/06/07 04:18:40;;;;;;;10.35;7.85;;;;;;;16.70;82.15;100146.00;5104735;28;20019;-70
2022/06/07 04:21:06;;;;;;;10.15;7.38;;;;;;;17.23;82.14;100130.88;5104644;28;20062;-70
2022/06/07 04:23:32;;;;;;;11.63;7.38;;;;;;;17.95;80.83;100135.75;5104830;28;20027;-70
2022/06/07 04:26:10;;;;;;;9.90;7.35;;;;;;;18.54;78.78;100135.81;5104768;28;20502;-69
2022/06/07 04:28:36;;;;;;;9.85;7.28;;;;;;;19.01;76.44;100130.97;5104652;28;20051;-73
2022/06/07 04:31:02;;;;;;;9.60;7.43;;;;;;;19.48;73.83;100120.84;5104697;28;20028;-71
2022/06/07 04:33:27;;;;;;;9.18;7.35;;;;;;;19.93;70.43;100118.56;5104407;28;20035;-68
2022/06/07 04:35:53;;;;;;;10.18;6.88;;;;;;;20.29;67.07;100124.59;5104498;28;20016;-69
2022/06/07 04:38:18;;;;;;;9.10;6.72;;;;;;;20.39;65.58;100129.38;5104056;28;20283;-69
2022/06/07 04:40:44;;;;;;;8.80;6.63;;;;;;;20.42;64.83;100127.44;5104124;28;20046;-69
2022/06/07 04:43:12;;;;;;;7.82;6.13;;;;;;;20.55;63.62;100124.13;5104103;28;20130;-69
2022/06/07 04:45:39;;;;;;;11.68;6.63;;;;;;;20.80;63.01;100128.88;5104318;28;20027;-69
2022/06/07 04:48:06;;;;;;;10.13;6.30;;;;;;;20.93;60.83;100125.56;5104112;28;20096;-69
2022/06/07 04:50:32;;;;;;;8.00;6.57;;;;;;;20.96;60.33;100124.56;5104233;28;20028;-69
2022/06/07 04:52:57;;;;;;;8.38;6.65;;;;;;;21.05;60.29;100122.22;5104358;28;20385;-69
2022/06/07 04:55:23;;;;;;;7.90;6.22;;;;;;;21.08;59.11;100125.63;5085737;28;20024;-69
2022/06/07 04:57:48;;;;;;;9.50;7.18;;;;;;;20.98;57.92;100115.63;5104022;28;20040;-69
2022/06/07 05:00:15;;;;;;;10.68;7.20;;;;;;;20.79;58.16;100119.28;5103804;28;20069;-70
2022/06/07 05:02:44;;;;;;;8.27;6.97;;;;;;;20.63;58.37;100126.31;5103602;28;20020;-68
2022/06/07 05:05:11;;;;;;;7.00;6.20;;;;;;;20.70;58.52;100118.94;5103857;28;20016;-67
2022/06/07 05:07:37;;;;;;;7.88;6.43;;;;;;;20.84;57.53;100110.22;5103813;28;20024;-66
2022/06/07 05:10:05;;;;;;;9.00;6.30;;;;;;;20.97;57.28;100113.06;5103500;28;20024;-66
2022/06/07 05:12:32;;;;;;;7.60;6.57;;;;;;;20.95;56.63;100112.28;5103770;28;20028;-66
2022/06/07 05:14:59;;;;;;;8.35;6.55;;;;;;;20.90;56.50;100116.03;5103410;28;20024;-66
2022/06/07 05:17:24;;;;;;;6.35;5.72;;;;;;;20.86;56.11;100117.16;5103762;28;20028;-66
2022/06/07 05:19:49;;;;;;;6.47;5.28;;;;;;;20.85;55.88;100120.69;5103400;28;20020;-67
2022/06/07 05:22:15;;;;;;;6.30;5.22;;;;;;;20.79;54.66;100106.09;5085745;28;20478;-66
2022/06/07 05:24:41;;;;;;;6.10;5.43;;;;;;;20.29;54.83;100106.16;5103812;28;20450;-66
2022/06/07 05:27:09;;;;;;;8.07;5.97;;;;;;;19.80;56.29;100106.94;5104029;28;20441;-66
2022/06/07 05:29:49;;;;;;;7.70;6.40;;;;;;;19.41;57.53;100101.03;5103596;28;20020;-66
2022/06/07 05:32:16;;;;;;;7.50;5.15;;;;;;;19.39;58.41;100108.97;5103764;28;20030;-67
2022/06/07 05:34:42;;;;;;;7.35;6.03;;;;;;;19.68;57.95;100119.00;5103435;28;20289;-66
2022/06/07 05:37:13;;;;;;;5.90;4.75;;;;;;;20.16;56.52;100113.03;5103823;28;20028;-66
2022/06/07 05:39:39;;;;;;;7.35;5.47;;;;;;;20.42;55.99;100113.38;5103214;28;20028;-66
2022/06/07 05:42:04;;;;;;;6.70;6.00;;;;;;;20.59;55.20;100114.25;5103555;28;20512;-66
2022/06/07 05:44:30;;;;;;;6.70;5.45;;;;;;;20.83;54.06;100105.91;5103505;28;20024;-66
2022/06/07 05:46:56;;;;;;;5.57;4.00;;;;;;;20.94;53.54;100100.91;5103710;28;20032;-66
2022/06/07 05:49:21;;;;;;;6.55;5.30;;;;;;;21.13;52.31;100105.97;5103210;28;20291;-66
2022/06/07 05:51:47;;;;;;;7.45;5.53;;;;;;;20.93;53.25;100092.13;5103410;28;20050;-66
2022/06/07 05:54:14;;;;;;;7.03;5.65;;;;;;;21.26;52.52;100102.63;5103282;28;20126;-66
2022/06/07 05:56:40;;;;;;;6.70;5.40;;;;;;;21.24;51.68;100100.06;5085253;28;20040;-66
2022/06/07 05:59:07;;;;;;;8.77;5.70;;;;;;;20.96;52.45;100099.00;5103433;28;20141;-66
2022/06/07 06:01:33;;;;;;;6.63;5.63;;;;;;;20.70;52.36;100100.47;5103532;28;20151;-65
2022/06/07 06:03:59;;;;;;;7.43;5.50;;;;;;;20.54;52.93;100096.88;5103160;28;20111;-66
2022/06/07 06:06:25;;;;;;;6.18;5.10;;;;;;;20.54;53.60;100093.41;5103355;28;20028;-66
2022/06/07 06:11:36;;;;;;;7.35;4.90;;;;;;;20.68;53.02;100097.91;5103455;28;20402;-66
2022/06/07 06:14:03;;;;;;;5.97;5.35;;;;;;;20.58;52.59;100102.84;5104035;28;20385;-66
2022/06/07 06:16:29;;;;;;;7.57;5.32;;;;;;;20.13;53.30;100106.13;5107395;28;20031;-66
2022/06/07 06:18:57;;;;;;;7.47;6.15;;;;;;;19.73;54.09;100089.78;5107300;28;20142;-66
2022/06/07 06:21:25;;;;;;;6.43;5.05;;;;;;;19.43;55.25;100089.50;5107159;28;20024;-67
2022/06/07 06:23:51;;;;;;;6.88;5.80;;;;;;;19.20;55.81;100085.41;5107357;28;20369;-67
2022/06/07 06:26:19;;;;;;;7.93;5.60;;;;;;;19.27;56.40;100086.78;5107301;28;20028;-66
2022/06/07 06:28:45;;;;;;;10.50;5.43;;;;;;;19.62;55.96;100085.03;5107040;28;20061;-66
2022/06/07 06:31:12;;;;;;;9.55;5.57;;;;;;;19.96;55.64;100082.44;5107106;28;20031;-66
2022/06/07 06:33:40;;;;;;;6.82;4.85;;;;;;;20.29;54.60;100085.06;5107172;28;20028;-65
2022/06/07 06:36:08;;;;;;;6.10;5.25;;;;;;;20.16;53.92;100082.25;5106752;28;20094;-65
2022/06/07 06:38:34;;;;;;;6.40;4.57;;;;;;;19.93;54.34;100091.34;5107006;28;20024;-65
2022/06/07 06:41:13;;;;;;;6.25;5.25;;;;;;;19.62;55.02;100090.31;5107203;28;20031;-65
2022/06/07 06:43:40;;;;;;;6.10;5.03;;;;;;;19.23;55.48;100098.41;5107094;28;20040;-65
2022/06/07 06:46:14;;;;;;;7.35;5.10;;;;;;;19.04;56.27;100101.06;5106707;28;20071;-65
2022/06/07 06:48:40;;;;;;;6.78;4.93;;;;;;;18.85;57.05;100108.97;5106830;28;20026;-65
2022/06/07 06:51:11;;;;;;;6.43;5.22;;;;;;;18.54;57.76;100113.91;5106685;28;20102;-65
2022/06/07 06:53:38;;;;;;;7.20;5.30;;;;;;;18.30;58.71;100114.97;5106863;28;20119;-68
2022/06/07 06:56:04;;;;;;;7.82;5.32;;;;;;;18.12;59.68;100126.31;5106451;28;20016;-66
2022/06/07 06:58:30;;;;;;;7.20;5.13;;;;;;;17.77;60.52;100112.00;5106576;28;20020;-66
2022/06/07 07:01:14;;;;;;;7.50;5.95;;;;;;;17.64;61.26;100116.94;5106660;28;20028;-66
2022/06/07 07:03:41;;;;;;;7.30;5.25;;;;;;;17.54;61.88;100115.63;5106497;28;20020;-66
2022/06/07 07:06:09;;;;;;;7.55;5.22;;;;;;;17.52;62.10;100120.09;5106296;28;20130;-66
2022/06/07 07:08:36;;;;;;;8.15;5.85;;;;;;;17.49;62.33;100121.06;5106266;28;20020;-66
2022/06/07 07:11:11;;;;;;;7.28;5.93;;;;;;;17.40;62.88;100119.69;5106375;28;20020;-66
2022/06/07 07:13:38;;;;;;;6.88;5.63;;;;;;;17.23;63.66;100115.13;5088244;28;20032;-66
2022/06/07 07:16:06;;;;;;;10.40;5.30;;;;;;;16.98;64.58;100118.72;5106587;28;20364;-66
2022/06/07 07:18:32;;;;;;;8.07;6.68;;;;;;;16.80;65.15;100123.78;5106552;28;20024;-66
2022/06/07 07:20:57;;;;;;;8.40;6.50;;;;;;;16.80;65.36;100131.66;5106095;28;20423;-66
2022/06/07 07:23:24;;;;;;;7.50;5.80;;;;;;;16.67;66.03;100127.78;5106143;28;20081;-67
2022/06/07 07:25:50;;;;;;;7.45;6.18;;;;;;;16.65;66.20;100121.72;5105484;28;20054;-66
2022/06/07 07:28:16;;;;;;;8.45;5.72;;;;;;;16.60;66.40;100129.78;5105960;28;20020;-66
2022/06/07 07:30:42;;;;;;;8.70;6.43;;;;;;;16.59;66.77;100120.22;5105835;28;20054;-66
2022/06/07 07:33:07;;;;;;;9.90;6.55;;;;;;;16.53;66.84;100113.47;5105620;28;20039;-66
2022/06/07 07:35:34;;;;;;;11.07;6.80;;;;;;;16.51;67.26;100125.75;5087416;28;20039;-66
2022/06/07 07:38:00;;;;;;;8.00;5.80;;;;;;;16.46;67.69;100125.94;5105839;28;20020;-67
2022/06/07 07:40:26;;;;;;;11.15;6.95;;;;;;;16.46;67.77;100119.81;5105642;28;20027;-68
2022/06/07 07:42:52;;;;;;;7.95;5.85;;;;;;;16.52;67.86;100116.13;5106025;28;20016;-67
2022/06/07 07:45:17;;;;;;;8.02;5.65;;;;;;;16.51;68.03;100120.50;5105633;28;20038;-67
2022/06/07 07:47:43;;;;;;;9.40;6.40;;;;;;;16.55;68.31;100116.84;5105953;28;20050;-67
2022/06/07 07:50:11;;;;;;;7.25;5.82;;;;;;;16.62;68.20;100111.38;5087457;28;20027;-67
2022/06/07 07:52:38;;;;;;;9.48;6.65;;;;;;;16.77;67.86;100110.81;5105697;28;20016;-67
2022/06/07 07:55:04;;;;;;;10.13;7.00;;;;;;;16.86;67.66;100114.81;5105696;28;20106;-67
2022/06/07 07:57:31;;;;;;;8.55;5.78;;;;;;;16.94;67.17;100111.88;5105554;28;20058;-67
2022/06/07 07:59:57;;;;;;;7.35;5.70;;;;;;;17.03;67.00;100100.19;5105293;28;20028;-67
2022/06/07 08:02:23;;;;;;;9.00;6.32;;;;;;;17.10;66.79;100101.66;5105413;28;20024;-67
2022/06/07 08:04:48;;;;;;;7.38;6.18;;;;;;;17.19;66.24;100097.78;5105288;28;20424;-67
2022/06/07 08:07:14;;;;;;;8.00;6.18;;;;;;;17.16;65.96;100103.16;5087134;28;20031;-67
2022/06/07 08:09:39;;;;;;;7.57;5.55;;;;;;;17.05;66.18;100104.44;5105170;28;20020;-67
2022/06/07 08:12:08;;;;;;;7.80;5.55;;;;;;;17.04;66.29;100102.75;5105235;28;20099;-67
2022/06/07 08:14:35;;;;;;;6.72;5.15;;;;;;;17.01;65.84;100109.88;5105278;28;20376;-66
2022/06/07 08:17:01;;;;;;;8.63;5.68;;;;;;;16.97;66.21;100111.75;5105284;28;20336;-66
2022/06/07 08:19:27;;;;;;;6.88;5.63;;;;;;;16.82;66.67;100110.63;5104769;28;20027;-66
2022/06/07 08:21:52;;;;;;;11.10;6.68;;;;;;;16.80;66.93;100118.53;5105189;28;20031;-68
2022/06/07 08:24:18;;;;;;;8.60;6.68;;;;;;;16.63;68.02;100111.31;5105084;28;20020;-70
2022/06/07 08:26:46;;;;;;;10.55;6.60;;;;;;;16.43;69.12;100117.31;5086854;28;20031;-74
2022/06/07 08:29:12;;;;;;;11.25;6.82;;;;;;;16.04;71.26;100119.59;5104787;28;20020;-74
2022/06/07 08:31:38;;;;;;;14.57;7.90;;;;;;;15.66;72.89;100126.97;5086575;28;20032;-76
2022/06/07 08:39:33;;;;;;;14.98;10.38;;;;;;;14.93;77.09;100133.69;5104715;28;20054;-76
2022/06/07 08:42:22;;;;;;;16.25;10.77;;;;;;;14.85;77.68;100130.44;5104714;28;20023;-75
2022/06/07 08:44:55;;;;;;;19.35;11.82;;;;;;;14.79;78.03;100136.69;5086319;28;20024;-72
2022/06/07 08:47:46;;;;;;;22.33;13.73;;;;;;;14.78;78.68;100129.75;5086337;28;20027;-74
2022/06/07 08:50:22;;;;;;;18.00;11.90;;;;;;;14.77;79.38;100127.16;5104333;28;20016;-74
2022/06/07 08:52:52;;;;;;;21.10;12.60;;;;;;;14.74;80.17;100122.91;5104456;28;20055;-73
2022/06/07 08:55:26;;;;;;;22.45;14.07;;;;;;;14.77;80.72;100114.09;5104657;28;20020;-70
2022/06/07 08:57:58;;;;;;;26.23;14.75;;;;;;;14.80;81.56;100120.13;5104244;28;20048;-71
2022/06/07 09:00:33;;;;;;;21.23;13.68;;;;;;;14.87;81.76;100108.56;5104253;28;20020;-69
2022/06/07 09:03:34;;;;;;;18.38;12.30;;;;;;;14.90;82.49;100112.00;5104242;28;20035;-70
2022/06/07 09:06:03;;;;;;;18.65;12.85;;;;;;;14.93;82.79;100118.00;5103417;28;20539;-71
2022/06/07 09:08:54;;;;;;;20.80;14.68;;;;;;;14.99;82.79;100114.31;5085594;28;20054;-71
2022/06/07 09:14:29;;;;;;;20.60;13.32;;;;;;;15.06;83.43;100118.47;5104075;28;20062;-70
2022/06/07 09:16:56;;;;;;;19.67;14.13;;;;;;;15.05;83.97;100114.13;5103961;28;20138;-70
2022/06/07 09:19:26;;;;;;;21.10;14.45;;;;;;;15.08;84.61;100111.41;5103670;28;20024;-70
2022/06/07 09:21:56;;;;;;;24.38;15.00;;;;;;;15.22;84.85;100113.56;5104063;28;20020;-69
2022/06/07 09:24:28;;;;;;;19.52;13.02;;;;;;;15.20;84.11;100114.53;5085526;28;20024;-68
2022/06/07 09:27:23;;;;;;;19.88;11.68;;;;;;;15.14;84.36;100114.75;5103761;28;20044;-70
2022/06/07 09:29:56;;;;;;;22.63;14.57;;;;;;;15.05;84.48;100106.28;5102964;28;20057;-69
2022/06/07 09:32:25;;;;;;;19.45;12.90;;;;;;;15.19;84.97;100110.22;5103732;28;20028;-69
2022/06/07 09:35:09;;;;;;;17.75;12.88;;;;;;;15.42;85.76;100108.59;5085053;28;20027;-68
2022/06/07 09:37:54;;;;;;;17.70;11.88;;;;;;;15.71;85.49;100099.78;5103628;28;20103;-68
2022/06/07 09:40:23;;;;;;;18.83;13.80;;;;;;;15.98;85.19;100099.72;5102776;28;20036;-68
2022/06/07 09:42:53;;;;;;;16.88;11.95;;;;;;;16.19;85.42;100093.75;5103623;28;20043;-69
2022/06/07 09:45:30;;;;;;;15.68;12.23;;;;;;;16.41;85.29;100090.31;5103632;28;20016;-72
2022/06/07 09:47:56;;;;;;;20.08;12.75;;;;;;;16.70;84.26;100083.09;5085084;28;20035;-71
2022/06/07 09:50:34;;;;;;;16.17;11.60;;;;;;;16.89;83.56;100079.75;5103323;28;20020;-72
2022/06/07 09:53:09;;;;;;;16.70;12.60;;;;;;;17.37;83.43;100087.47;5103496;28;20031;-73
2022/06/07 09:55:46;;;;;;;14.10;10.63;;;;;;;17.76;82.98;100089.31;5103583;28;20024;-73
2022/06/07 09:58:14;;;;;;;13.25;10.23;;;;;;;17.86;78.25;100092.38;5103365;28;20044;-72
2022/06/07 10:00:48;;;;;;;13.05;10.02;;;;;;;17.88;78.63;100074.78;5103047;28;20020;-71
2022/06/07 10:03:41;;;;;;;13.20;9.77;;;;;;;18.14;77.49;100083.31;5103407;28;20020;-71
2022/06/07 10:06:29;;;;;;;11.95;10.30;;;;;;;18.31;77.03;100085.16;5103087;28;20091;-71
2022/06/07 10:09:04;;;;;;;14.60;10.10;;;;;;;18.52;77.76;100087.69;5103431;28;20048;-70
2022/06/07 10:11:43;;;;;;;14.70;9.80;;;;;;;18.80;77.14;100089.00;5103271;28;20028;-70
2022/06/07 10:14:34;;;;;;;11.48;9.13;;;;;;;18.60;73.47;100079.44;5103371;28;20420;-69
2022/06/07 10:17:22;;;;;;;12.48;9.38;;;;;;;18.43;75.31;100083.75;5103105;28;20275;-69
2022/06/07 10:20:13;;;;;;;12.23;8.82;;;;;;;18.45;72.89;100070.53;5102987;28;20040;-69
2022/06/07 10:22:56;;;;;;;10.60;8.70;;;;;;;18.42;72.81;100071.50;5103305;28;20023;-69
2022/06/07 10:25:39;;;;;;;11.80;8.43;;;;;;;18.56;71.12;100076.09;5103331;28;20020;-69
2022/06/07 10:28:15;;;;;;;13.90;8.32;;;;;;;18.47;70.69;100076.53;5103187;28;20027;-68
2022/06/07 10:30:56;;;;;;;10.15;7.05;;;;;;;18.60;70.04;100073.31;5103126;28;20134;-68
2022/06/07 10:33:50;;;;;;;10.17;7.43;;;;;;;19.00;69.39;100060.03;5103144;28;20024;-67
2022/06/07 10:36:39;;;;;;;11.35;7.75;;;;;;;19.32;68.62;100053.19;5102937;28;20024;-67
2022/06/07 10:39:14;;;;;;;8.13;5.68;;;;;;;19.54;65.41;100053.84;5102841;28;20532;-67
2022/06/07 10:41:49;;;;;;;10.07;6.85;;;;;;;19.47;64.33;100055.09;5103301;28;20535;-67
2022/06/07 10:44:53;;;;;;;8.45;6.18;;;;;;;19.41;64.47;100054.50;5102917;28;20051;-67
2022/06/07 10:47:29;;;;;;;9.90;6.20;;;;;;;19.53;65.17;100058.28;5102268;28;20052;-67
2022/06/07 10:50:04;;;;;;;8.00;4.78;;;;;;;19.50;61.37;100045.28;5102881;28;20012;-67
2022/06/07 10:52:45;;;;;;;9.52;5.78;;;;;;;19.40;61.01;100050.16;5103138;28;20088;-67
2022/06/07 10:55:23;;;;;;;8.10;6.22;;;;;;;19.32;61.45;100040.03;5103088;28;20051;-67
2022/06/07 10:58:05;;;;;;;8.10;6.40;;;;;;;19.56;62.10;100044.97;5102858;28;20048;-67
2022/06/07 11:00:40;;;;;;;7.28;6.00;;;;;;;19.96;61.99;100042.91;5104073;28;20055;-67
2022/06/07 11:03:18;;;;;;;6.45;5.47;;;;;;;20.28;61.20;100033.28;5088346;28;20035;-67
2022/06/07 11:11:23;;;;;;;7.93;6.20;;;;;;;20.33;57.74;100033.03;5106688;28;20077;-67
2022/06/07 11:14:14;;;;;;;6.90;5.55;;;;;;;20.27;57.35;100031.56;5106260;28;20074;-67
2022/06/07 11:17:08;;;;;;;8.95;5.68;;;;;;;19.95;57.84;100026.28;5095074;28;20032;-67
2022/06/07 11:19:33;;;;;;;8.10;5.40;;;;;;;19.82;58.21;100024.28;5105098;28;20534;-67
2022/06/07 11:22:03;;;;;;;7.70;4.97;;;;;;;19.73;56.81;100026.56;5106334;28;20024;-67
2022/06/07 11:24:34;;;;;;;5.05;4.32;;;;;;;19.56;54.80;100015.13;5106226;28;20368;-67
2022/06/07 11:27:19;;;;;;;6.97;4.40;;;;;;;19.47;56.38;100011.22;5106192;28;20031;-67
2022/06/07 11:29:46;;;;;;;7.13;4.28;;;;;;;19.67;55.96;100006.66;5106076;28;20027;-67
2022/06/07 11:32:39;;;;;;;7.78;4.57;;;;;;;19.91;55.80;100003.66;5105863;28;20325;-67
2022/06/07 11:35:43;;;;;;;5.05;4.30;;;;;;;20.12;56.15;100006.94;5105790;28;20024;-67
2022/06/07 11:38:22;;;;;;;7.70;4.65;;;;;;;20.37;54.66;100008.19;5106016;28;20049;-67
2022/06/07 11:40:51;;;;;;;7.22;5.13;;;;;;;20.42;53.99;100006.16;5105686;28;20020;-67
2022/06/07 11:43:50;;;;;;;7.50;3.78;;;;;;;20.47;55.08;100000.63;5105814;28;20024;-67
2022/06/07 11:46:49;;;;;;;6.60;4.55;;;;;;;20.76;54.80;99999.88;5105708;28;20027;-67
2022/06/07 11:49:18;;;;;;;5.95;4.20;;;;;;;20.93;53.69;99997.16;5105542;28;20522;-67
2022/06/07 11:52:05;;;;;;;5.22;3.35;;;;;;;21.11;51.36;99998.78;5105541;28;20043;-67
2022/06/07 11:54:35;;;;;;;6.10;3.95;;;;;;;20.75;50.94;99993.75;5105550;28;20020;-66
2022/06/07 11:57:03;;;;;;;5.50;4.25;;;;;;;20.66;51.20;99994.28;5105275;28;20491;-67